2022年9月25日

时间 代码 天气 温度 能见度 天花板 METAR/SPECI
05:30
M
13 °C 10 km+ 2.100 ft 240° 240° 6 kt METAR LFMK 250330Z AUTO 24006KT 200V280 9999 BKN021 13/11 Q1014 TEMPO BKN014
05:00
M
13 °C 10 km+ 2.200 ft 270° 270° 5 kt METAR LFMK 250300Z AUTO 27005KT 9999 BKN022 BKN032 13/11 Q1014 TEMPO BKN014
04:30
M
13 °C 10 km+ 2.200 ft 270° 270° 6 kt METAR LFMK 250230Z AUTO 27006KT 9999 OVC022 13/12 Q1014
04:00
M
13 °C 10 km+ 2.200 ft 260° 260° 6 kt METAR LFMK 250200Z AUTO 26006KT 230V290 9999 OVC022 13/12 Q1015
03:30
M
13 °C 10 km+ 2.200 ft 250° 250° 4 kt METAR LFMK 250130Z AUTO 25004KT 220V290 9999 BKN022 BKN160 OVC190 13/12 Q1015
03:00
V
13 °C 10 km+ - 260° 260° 7 kt METAR LFMK 250100Z AUTO 26007KT 230V290 CAVOK 13/11 Q1015
02:30
V
13 °C 10 km+ - 280° 280° 9 kt METAR LFMK 250030Z AUTO 28009KT CAVOK 13/11 Q1015
02:00
V
13 °C 10 km+ 9.800 ft 260° 260° 8 kt METAR LFMK 250000Z AUTO 26008KT 9999 FEW040 OVC098 13/11 Q1015
01:30
V
13 °C 10 km+ 8.400 ft 240° 240° 6 kt METAR LFMK 242330Z AUTO 24006KT 210V270 9999 SCT034 SCT044 BKN084 13/11 Q1016
01:00
V
13 °C 10 km+ - 250° 250° 7 kt METAR LFMK 242300Z AUTO 25007KT 220V280 CAVOK 13/12 Q1015
00:30
V
13 °C 10 km+ - 250° 250° 5 kt METAR LFMK 242230Z AUTO 25005KT CAVOK 13/12 Q1015
00:00
V
14 °C 10 km+ - 260° 260° 5 kt METAR LFMK 242200Z AUTO 26005KT 230V290 9999 FEW039 14/12 Q1015

2022年9月24日

时间 代码 天气 温度 能见度 天花板 METAR/SPECI
23:30
V
14 °C 10 km+ 10.000 ft 260° 260° 5 kt METAR LFMK 242130Z AUTO 26005KT 9999 FEW035 OVC100 14/12 Q1015
23:00
V
14 °C 10 km+ 9.000 ft 260° 260° 4 kt METAR LFMK 242100Z AUTO 26004KT 230V290 9999 FEW035 OVC090 14/13 Q1015
22:30
V
14 °C 10 km+ 8.600 ft 270° 270° 3 kt METAR LFMK 242030Z AUTO 27003KT 220V300 9999 FEW068 OVC086 14/13 Q1016
22:00
V
15 °C 10 km+ 7.000 ft 260° 260° 4 kt METAR LFMK 242000Z AUTO 26004KT 230V290 9999 BKN070 OVC088 15/14 Q1016
21:30
V
15 °C 10 km+ 6.000 ft 260° 260° 3 kt METAR LFMK 241930Z AUTO 26003KT 230V290 9999 FEW026 BKN060 BKN082 15/14 Q1015
21:00
V
15 °C 10 km+ 9.400 ft 250° 250° 5 kt METAR LFMK 241900Z AUTO 25005KT 220V280 9999 FEW078/// OVC094/// //////TCU 15/13 Q1015
20:30
V
14 °C 10 km+ 7.400 ft 260° 260° 6 kt METAR LFMK 241830Z AUTO 26006KT 230V290 9999 BKN074 OVC098 14/13 Q1015
20:00
V
14 °C 10 km+ - 280° 280° 7 kt METAR LFMK 241800Z AUTO 28007KT 9999 -RA //////TCU 14/13 Q1015 TEMPO 4000 -SHRA
19:30
V
15 °C 10 km+ 8.600 ft 280° 280° 10 kt METAR LFMK 241730Z AUTO 28010KT 9999 -RA FEW014/// OVC086/// //////CB 15/13 Q1014 TEMPO 4000 -SHRA
19:00
V
16 °C 10 km+ 5.000 ft 290° 290° 10 kt METAR LFMK 241700Z AUTO 29010KT 9999 RA FEW027/// SCT041/// BKN050/// //////CB 16/14 Q1014 TEMPO 4000 -SHRA
18:30
V
17 °C 10 km+ 7.600 ft 280° 280° 8 kt METAR LFMK 241630Z AUTO 28008KT 9999 -RA FEW041/// BKN076/// OVC090/// //////CB 17/15 Q1014 TEMPO 4000 -SHRA
18:00
V
17 °C 10 km+ 7.400 ft 270° 270° 7 kt METAR LFMK 241600Z AUTO 27007KT 230V300 9999 -RA SCT056/// OVC074/// ///CB 17/14 Q1013 TEMPO 4000 -SHRA
17:30
V
18 °C 10 km+ 5.000 ft 280° 280° 10 kt METAR LFMK 241530Z AUTO 28010KT 9999 -RA FEW042/// BKN050/// BKN062/// //////CB 18/14 Q1013 TEMPO 4000 -SHRA
17:00
V
20 °C 10 km+ 7.600 ft 310° 310° 7 kt METAR LFMK 241500Z AUTO 31007KT 270V330 9999 FEW047/// BKN076/// OVC092/// //////CB 20/11 Q1012 TEMPO 4000 -SHRA
16:30
V
21 °C 10 km+ 7.800 ft 290° 290° 8 kt METAR LFMK 241430Z AUTO 29008KT 9999 OVC078/// //////TCU 21/10 Q1013 TEMPO 4000 -SHRA
16:00
V
21 °C 10 km+ 8.400 ft 300° 300° 9 kt METAR LFMK 241400Z AUTO 30009KT 280V340 9999 OVC084 21/10 Q1013 TEMPO 4000 -SHRA SCT025TCU
15:30
V
22 °C 10 km+ 14.000 ft 280° 280° 11 kt METAR LFMK 241330Z AUTO 28011KT 250V320 9999 SCT080 BKN140 22/11 Q1013 TEMPO 4000 -SHRA SCT025TCU
15:00
V
22 °C 10 km+ - 300° 300° 11 kt METAR LFMK 241300Z AUTO 30011KT 240V330 CAVOK 22/12 Q1013 TEMPO 4000 -SHRA SCT025TCU
14:30
V
22 °C 10 km+ 12.000 ft 280° 280° 11 kt METAR LFMK 241230Z AUTO 28011KT 230V310 9999 FEW039 BKN120 22/12 Q1014 TEMPO 4000 -SHRA SCT025TCU
14:00
V
21 °C 10 km+ 5.600 ft 280° 280° 9 kt METAR LFMK 241200Z AUTO 28009KT 220V310 9999 FEW023 BKN056 BKN130 21/13 Q1014 NOSIG
13:30
M
20 °C 10 km+ 2.600 ft 280° 280° 9 kt METAR LFMK 241130Z AUTO 28009KT 240V320 9999 BKN026 BKN042 OVC060 20/14 Q1014 NOSIG
13:00
V
20 °C 10 km+ 4.300 ft 280° 280° 9 kt METAR LFMK 241100Z AUTO 28009KT 240V310 9999 FEW025 BKN043 OVC058 20/14 Q1014 NOSIG
12:30
V
19 °C 10 km+ 3.800 ft 280° 280° 10 kt METAR LFMK 241030Z AUTO 28010KT 240V300 9999 FEW024 BKN038 BKN054 19/14 Q1014 NOSIG
12:00
V
20 °C 10 km+ 5.400 ft 280° 280° 11 kt METAR LFMK 241000Z AUTO 28011KT 240V300 9999 FEW021 BKN054 BKN110 20/14 Q1014 NOSIG
11:30
V
20 °C 10 km+ - 270° 270° 10 kt METAR LFMK 240930Z AUTO 27010KT 230V290 9999 FEW022 SCT032 20/14 Q1014 NOSIG
11:00
V
19 °C 10 km+ - 280° 280° 9 kt METAR LFMK 240900Z AUTO 28009KT 240V300 9999 FEW017 19/14 Q1014 NOSIG
10:30
V
18 °C 10 km+ 15.000 ft 280° 280° 9 kt METAR LFMK 240830Z AUTO 28009KT 9999 FEW015 BKN150 18/14 Q1014 NOSIG
10:00
V
17 °C 10 km+ - 270° 270° 9 kt METAR LFMK 240800Z AUTO 27009KT CAVOK 17/14 Q1014 NOSIG
09:30
V
16 °C 10 km+ 15.000 ft 270° 270° 9 kt METAR LFMK 240730Z AUTO 27009KT 220V300 9999 FEW062 BKN150 16/14 Q1014 NOSIG
09:00
V
16 °C 10 km+ 14.000 ft 270° 270° 9 kt METAR LFMK 240700Z AUTO 27009KT 9999 FEW068 BKN140 16/14 Q1014 NOSIG
08:30
M
16 °C 10 km+ 2.700 ft 270° 270° 7 kt METAR LFMK 240630Z AUTO 27007KT 230V290 9999 BKN027 OVC068 16/15 Q1014 NOSIG
08:00
V
16 °C 10 km+ 6.800 ft 270° 270° 7 kt METAR LFMK 240600Z AUTO 27007KT 9999 FEW029 SCT035 OVC068 16/15 Q1015 NOSIG
07:30
M
16 °C 10 km+ 1.800 ft 280° 280° 7 kt METAR LFMK 240530Z AUTO 28007KT 9999 BKN018 OVC035 16/15 Q1015 NOSIG
07:00
M
16 °C 10 km+ 2.000 ft 260° 260° 5 kt METAR LFMK 240500Z AUTO 26005KT 230V290 9999 FEW010 BKN020 BKN033 16/15 Q1015 NOSIG
06:30
V
16 °C 10 km+ 3.100 ft 280° 280° 6 kt METAR LFMK 240430Z AUTO 28006KT 9999 SCT024 BKN031 OVC042 16/15 Q1014 NOSIG
06:00
M
16 °C 10 km+ 2.300 ft 280° 280° 6 kt METAR LFMK 240400Z AUTO 28006KT 9999 FEW015 BKN023 OVC031 16/15 Q1014 NOSIG
05:30
M
16 °C 10 km+ 1.700 ft 260° 260° 4 kt METAR LFMK 240330Z AUTO 26004KT 210V290 9999 BKN017 BKN030 BKN036 16/15 Q1014 NOSIG
05:00
V
16 °C 10 km+ 5.800 ft 270° 270° 6 kt METAR LFMK 240300Z AUTO 27006KT 220V290 9999 SCT016 OVC058 16/15 Q1014 NOSIG
04:30
V
16 °C 10 km+ 6.000 ft 260° 260° 6 kt METAR LFMK 240230Z AUTO 26006KT 230V290 9999 FEW011 OVC060 16/15 Q1014 NOSIG
04:00
V
16 °C 10 km+ 6.000 ft 260° 260° 6 kt METAR LFMK 240200Z AUTO 26006KT 220V290 9999 OVC060 16/15 Q1015
03:30
V
16 °C 10 km+ 17.000 ft 260° 260° 8 kt METAR LFMK 240130Z AUTO 26008KT 230V290 9999 FEW062 BKN170 16/15 Q1015
03:00
M
16 °C 10 km+ 2.000 ft 270° 270° 10 kt METAR LFMK 240100Z AUTO 27010KT 9999 BKN020 BKN180 16/14 Q1015
02:30
V
16 °C 10 km+ 12.000 ft 270° 270° 11 kt METAR LFMK 240030Z AUTO 27011KT 9999 FEW010 BKN120 BKN160 16/15 Q1015
02:00
V
16 °C 10 km+ 6.200 ft 260° 260° 10 kt METAR LFMK 240000Z AUTO 26010KT 210V290 9999 FEW012 SCT022 BKN062 16/15 Q1015
01:30
M
16 °C 10 km+ 1.100 ft 250° 250° 9 kt METAR LFMK 232330Z AUTO 25009KT 220V280 9999 BKN011 BKN020 OVC100 16/15 Q1015
01:00
V
17 °C 10 km+ 8.800 ft 260° 260° 10 kt METAR LFMK 232300Z AUTO 26010KT 230V290 9999 FEW014 SCT068 OVC088 17/15 Q1015
00:30
V
17 °C 10 km+ 8.600 ft 260° 260° 8 kt METAR LFMK 232230Z AUTO 26008KT 230V290 9999 FEW008 BKN086 BKN110 17/16 Q1015
00:00
V
17 °C 10 km+ 10.000 ft 260° 260° 10 kt METAR LFMK 232200Z AUTO 26010KT 230V290 9999 FEW007/// BKN100/// BKN130/// //////CB 17/16 Q1016

2022年9月23日

时间 代码 天气 温度 能见度 天花板 METAR/SPECI
23:30
V
16 °C 10 km+ 7.200 ft 290° 290° 11 kt METAR LFMK 232130Z AUTO 29011KT 9999 -RA VCTS FEW010/// SCT048/// BKN072/// //////CB 16/15 Q1016
23:00
M
18 °C 7 km 2.500 ft 240° 240° 7 - 20 kt METAR LFMK 232100Z AUTO 24007G20KT 140V290 7000 RA VCTS FEW010/// SCT015/// BKN025/// ///CB 18/16 Q1016
22:30
M
19 °C 10 km+ 1.300 ft Var 000° 0 kt METAR LFMK 232030Z AUTO 00000KT 9999 OVC013/// //////CB 19/17 Q1015
22:00
M
19 °C 10 km+ 1.400 ft Var Var 2 kt METAR LFMK 232000Z AUTO VRB02KT 9999 OVC014 19/17 Q1015
21:30
M
19 °C 10 km+ 1.500 ft 100° 100° 4 kt METAR LFMK 231930Z AUTO 10004KT 050V190 9999 OVC015/// //////TCU 19/17 Q1015
21:00
M
19 °C 10 km+ 1.800 ft 080° 080° 7 kt METAR LFMK 231900Z AUTO 08007KT 060V120 9999 OVC018 19/16 Q1015
20:30
M
19 °C 10 km+ 2.100 ft 080° 080° 9 kt METAR LFMK 231830Z AUTO 08009KT 9999 OVC021 19/16 Q1015
20:00
M
19 °C 10 km+ 2.100 ft 070° 070° 8 kt METAR LFMK 231800Z AUTO 07008KT 9999 BKN021 OVC026 19/17 Q1015 TEMPO 29015G25KT 2000 TSRA BKN012 SCT050CB
19:30
V
19 °C 10 km+ 11.000 ft 070° 070° 9 kt METAR LFMK 231730Z AUTO 07009KT 9999 SCT027/// SCT056/// BKN110/// ///CB 19/17 Q1015 TEMPO 29015G25KT 2000 TSRA BKN012 SCT050CB
19:00
V
19 °C 10 km+ 10.000 ft 080° 080° 11 kt METAR LFMK 231700Z AUTO 08011KT 9999 -RA FEW023/// OVC100/// ///CB 19/17 Q1015 TEMPO 4000 SHRA SCT025
18:30
M
21 °C 10 km+ 2.400 ft 080° 080° 12 kt METAR LFMK 231630Z AUTO 08012KT 9999 BKN024/// BKN090/// OVC110/// //////CB 21/15 Q1015 TEMPO 4000 SHRA SCT025
18:00
M
21 °C 10 km+ 2.500 ft 080° 080° 13 kt METAR LFMK 231600Z AUTO 08013KT 050V110 9999 BKN025 BKN120 OVC150 21/15 Q1015 NOSIG
17:30
M
22 °C 10 km+ 2.600 ft 080° 080° 15 kt METAR LFMK 231530Z AUTO 08015KT 9999 BKN026 OVC120 22/15 Q1015 NOSIG
17:00
V
22 °C 10 km+ 20.000 ft 080° 080° 18 kt METAR LFMK 231500Z AUTO 08018KT 060V120 9999 FEW026 BKN200 22/16 Q1015 BECMG VRB03KT BKN012
16:30
V
23 °C 10 km+ 13.000 ft 080° 080° 17 kt METAR LFMK 231430Z AUTO 08017KT 9999 FEW027 BKN130 23/16 Q1015 BECMG VRB03KT BKN012
16:00
V
23 °C 10 km+ - 080° 080° 19 kt METAR LFMK 231400Z AUTO 08019KT 060V120 9999 FEW028 23/15 Q1016 BECMG 09015G25KT
15:30
V
24 °C 10 km+ - 080° 080° 18 kt METAR LFMK 231330Z AUTO 08018KT 9999 FEW029 SCT230 24/16 Q1016 BECMG 09015G25KT
15:00
V
24 °C 10 km+ 23.000 ft 080° 080° 20 kt METAR LFMK 231300Z AUTO 08020KT 9999 FEW032 BKN230 24/16 Q1016 BECMG 09015G25KT
14:30
V
24 °C 10 km+ 23.000 ft 070° 070° 20 kt METAR LFMK 231230Z AUTO 07020KT 9999 FEW027 BKN230 24/16 Q1016 BECMG 09015G25KT
14:00
V
23 °C 10 km+ 24.000 ft 080° 080° 17 kt METAR LFMK 231200Z AUTO 08017KT 9999 FEW028 BKN240 23/15 Q1017 BECMG 09015G25KT
13:30
V
24 °C 10 km+ - 080° 080° 17 kt METAR LFMK 231130Z AUTO 08017KT 060V120 9999 FEW027 SCT240 24/15 Q1017 BECMG 09015G25KT
13:00
V
23 °C 10 km+ - 090° 090° 15 kt METAR LFMK 231100Z AUTO 09015KT 060V130 9999 FEW025 23/15 Q1017 BECMG 09015G25KT
12:30
M
23 °C 10 km+ 2.400 ft 080° 080° 16 kt METAR LFMK 231030Z AUTO 08016KT 9999 BKN024 BKN030 23/16 Q1018 BECMG 09015G25KT
12:00
M
21 °C 10 km+ 2.900 ft 090° 090° 12 kt METAR LFMK 231000Z AUTO 09012KT 070V150 9999 SCT021 BKN029 21/16 Q1018 BECMG 09015G25KT
11:30
M
22 °C 10 km+ 1.800 ft 090° 090° 13 kt METAR LFMK 230930Z AUTO 09013KT 060V130 9999 BKN018 22/16 Q1018 BECMG 09015G25KT
11:00
M
20 °C 10 km+ 1.400 ft 090° 090° 12 kt METAR LFMK 230900Z AUTO 09012KT 060V120 9999 BKN014 OVC021 20/16 Q1018 BECMG NSC
10:30
M
20 °C 10 km+ 1.400 ft 090° 090° 11 kt METAR LFMK 230830Z AUTO 09011KT 9999 BKN014 20/16 Q1018 BECMG NSC
10:00
M
19 °C 10 km+ 1.500 ft 090° 090° 10 kt METAR LFMK 230800Z AUTO 09010KT 9999 BKN015 BKN022 19/15 Q1018 TEMPO BKN013
09:30
M
18 °C 10 km+ 1.700 ft 090° 090° 9 kt METAR LFMK 230730Z AUTO 09009KT 9999 BKN017 BKN023 18/15 Q1018 TEMPO BKN013
09:00
M
16 °C 10 km+ 1.700 ft 110° 110° 3 kt METAR LFMK 230700Z AUTO 11003KT 070V150 9999 BKN017 OVC025 16/15 Q1018 TEMPO BKN013
08:30
M
14 °C 10 km+ 1.700 ft Var Var 1 kt METAR LFMK 230630Z AUTO VRB01KT 9999 BKN017 14/13 Q1018 TEMPO BKN013
08:00
V
13 °C 10 km+ - Var Var 2 kt METAR LFMK 230600Z AUTO VRB02KT 9999 FEW017 13/12 Q1018 TEMPO BKN013
07:30
V
13 °C 10 km+ - Var Var 2 kt METAR LFMK 230530Z AUTO VRB02KT 9999 FEW017 13/12 Q1018 TEMPO BKN013
07:00
V
14 °C 10 km+ - 090° 090° 5 kt METAR LFMK 230500Z AUTO 09005KT 9999 FEW015 14/13 Q1018 TEMPO BKN013
06:30
V
14 °C 10 km+ - 090° 090° 4 kt METAR LFMK 230430Z AUTO 09004KT 050V140 9999 FEW015 14/13 Q1018 TEMPO BKN013
06:00
V
14 °C 10 km+ - 100° 100° 4 kt METAR LFMK 230400Z AUTO 10004KT 060V130 CAVOK 14/13 Q1017 TEMPO BKN013
05:30
V
14 °C 10 km+ - 090° 090° 5 kt METAR LFMK 230330Z AUTO 09005KT CAVOK 14/13 Q1017 TEMPO BKN013
05:00
V
14 °C 10 km+ - 090° 090° 4 kt METAR LFMK 230300Z AUTO 09004KT 060V120 CAVOK 14/13 Q1018 NOSIG
04:30
V
13 °C 10 km+ - Var Var 3 kt METAR LFMK 230230Z AUTO VRB03KT CAVOK 13/12 Q1018
04:00
V
12 °C 10 km+ - Var Var 2 kt METAR LFMK 230200Z AUTO VRB02KT CAVOK 12/12 Q1018
03:30
V
12 °C 10 km+ - Var Var 2 kt METAR LFMK 230130Z AUTO VRB02KT CAVOK 12/11 Q1018
03:00
V
13 °C 10 km+ - 160° 160° 2 kt METAR LFMK 230100Z AUTO 16002KT CAVOK 13/12 Q1018
02:30
V
13 °C 10 km+ - Var Var 2 kt METAR LFMK 230030Z AUTO VRB02KT CAVOK 13/12 Q1018
02:00
V
13 °C 10 km+ - Var Var 2 kt METAR LFMK 230000Z AUTO VRB02KT CAVOK 13/12 Q1018
01:30
V
14 °C 10 km+ - Var Var 2 kt METAR LFMK 222330Z AUTO VRB02KT CAVOK 14/13 Q1018
01:00
V
14 °C 10 km+ - Var Var 2 kt METAR LFMK 222300Z AUTO VRB02KT CAVOK 14/13 Q1018
00:30
V
15 °C 10 km+ - 170° 170° 2 kt METAR LFMK 222230Z AUTO 17002KT CAVOK 15/13 Q1019
00:00
V
16 °C 10 km+ - Var Var 1 kt METAR LFMK 222200Z AUTO VRB01KT CAVOK 16/14 Q1019
较旧的数据

我们和第三方通过cookies跟踪您在我们网站上的上网行为。如果您继续,我们认为您同意我们的cookie政策。 了解更多